Time;durP1;ratioP1;P1;durP2;ratioP2;P2;SDS_P1;SDS_P2;PMS_P1;PMS_P2;Temp;Humidity;BMP_temperature;BMP_pressure;BME280_temperature;BME280_humidity;BME280_pressure;Samples;Min_cycle;Max_cycle;Signal;HPM_P1;HPM_P2
2022/04/27 00:00:43;;;;;;;16.38;6.90;;;7.00;99.90;;;;;;5052854;28;20061;-26
2022/04/27 00:03:09;;;;;;;12.10;7.22;;;6.80;99.90;;;;;;5051134;28;20498;-26
2022/04/27 00:05:34;;;;;;;13.52;5.63;;;6.80;99.90;;;;;;5051631;28;20044;-27
2022/04/27 00:08:00;;;;;;;12.95;5.07;;;6.80;99.90;;;;;;5053152;28;20468;-26
2022/04/27 00:10:26;;;;;;;10.70;5.30;;;7.00;99.90;;;;;;5053963;28;20040;-26
2022/04/27 00:12:52;;;;;;;15.38;5.68;;;6.90;99.90;;;;;;5051513;28;20067;-26
2022/04/27 00:15:20;;;;;;;5.65;4.00;;;6.90;99.90;;;;;;5041086;28;20492;-26
2022/04/27 00:17:46;;;;;;;12.50;4.68;;;7.10;99.90;;;;;;5032948;28;20088;-26
2022/04/27 00:20:12;;;;;;;12.18;4.78;;;7.10;99.90;;;;;;5033971;28;20084;-27
2022/04/27 00:22:38;;;;;;;6.03;3.90;;;7.10;99.90;;;;;;5033909;28;20392;-26
2022/04/27 00:25:04;;;;;;;7.28;4.05;;;7.40;99.90;;;;;;5037013;28;20116;-27
2022/04/27 00:27:31;;;;;;;9.23;3.97;;;7.00;99.90;;;;;;5044698;28;20546;-27
2022/04/27 00:29:58;;;;;;;9.48;3.75;;;7.30;99.90;;;;;;5037800;28;20042;-26
2022/04/27 00:32:24;;;;;;;10.02;4.18;;;7.10;99.90;;;;;;5047441;28;20045;-26
2022/04/27 00:34:50;;;;;;;8.07;3.92;;;7.20;99.90;;;;;;5053063;28;20052;-26
2022/04/27 00:37:18;;;;;;;9.85;3.70;;;7.10;99.90;;;;;;5048532;28;20041;-27
2022/04/27 00:39:44;;;;;;;8.40;4.32;;;7.10;99.90;;;;;;5047024;28;20494;-27
2022/04/27 00:42:17;;;;;;;12.77;4.78;;;7.30;99.90;;;;;;5042948;28;20068;-26
2022/04/27 00:44:46;;;;;;;6.72;3.78;;;7.10;99.90;;;;;;5051717;28;20049;-27
2022/04/27 00:47:14;;;;;;;10.15;4.10;;;7.10;99.90;;;;;;5048197;28;20453;-27
2022/04/27 00:49:42;;;;;;;5.57;3.72;;;7.20;99.90;;;;;;5030311;28;20049;-26
2022/04/27 00:52:12;;;;;;;9.68;4.00;;;7.20;99.90;;;;;;5033848;28;20041;-26
2022/04/27 00:54:42;;;;;;;7.97;3.85;;;7.10;99.90;;;;;;5032467;28;20046;-27
2022/04/27 00:57:09;;;;;;;8.88;4.30;;;7.10;99.90;;;;;;5051188;28;20186;-26
2022/04/27 00:59:35;;;;;;;7.40;3.92;;;7.50;99.90;;;;;;5038725;28;20049;-26
2022/04/27 01:02:02;;;;;;;11.10;4.18;;;7.10;99.90;;;;;;5032534;28;20061;-27
2022/04/27 01:04:28;;;;;;;9.65;4.38;;;7.10;99.90;;;;;;5032290;28;20045;-26
2022/04/27 01:06:54;;;;;;;7.97;4.18;;;7.00;99.90;;;;;;5032481;28;20576;-26
2022/04/27 01:09:23;;;;;;;6.88;3.97;;;7.10;99.90;;;;;;5038199;28;20080;-26
2022/04/27 01:11:49;;;;;;;6.78;4.25;;;7.00;99.90;;;;;;5050269;28;20063;-27
2022/04/27 01:14:14;;;;;;;9.48;3.83;;;6.90;99.90;;;;;;5049413;28;20480;-27
2022/04/27 01:16:40;;;;;;;7.15;4.35;;;6.90;99.90;;;;;;5040808;28;20045;-26
2022/04/27 01:19:06;;;;;;;6.18;3.75;;;6.90;99.90;;;;;;5046262;28;20400;-27
2022/04/27 01:21:33;;;;;;;6.38;3.88;;;7.00;99.90;;;;;;5040638;28;20060;-26
2022/04/27 01:23:59;;;;;;;7.75;4.30;;;7.00;99.90;;;;;;5033141;28;20446;-26
2022/04/27 01:26:25;;;;;;;12.32;4.20;;;6.80;99.90;;;;;;5033207;28;20064;-26
2022/04/27 01:28:51;;;;;;;7.20;4.03;;;6.80;99.90;;;;;;5032137;28;20045;-26
2022/04/27 01:31:17;;;;;;;7.15;3.88;;;7.00;99.90;;;;;;5038414;28;20084;-27
2022/04/27 01:33:43;;;;;;;6.22;4.45;;;6.90;99.90;;;;;;5049484;28;20052;-28
2022/04/27 01:36:10;;;;;;;6.80;3.67;;;7.00;99.90;;;;;;5049839;28;20045;-27
2022/04/27 01:38:43;;;;;;;6.90;3.78;;;6.80;99.90;;;;;;5033144;28;20049;-27
2022/04/27 01:41:10;;;;;;;7.17;3.97;;;6.70;99.90;;;;;;5032955;28;20103;-27
2022/04/27 01:43:36;;;;;;;9.18;3.95;;;6.90;99.90;;;;;;5041901;28;20040;-26
2022/04/27 01:46:03;;;;;;;8.25;3.83;;;7.00;99.90;;;;;;5052125;28;20060;-27
2022/04/27 01:48:29;;;;;;;7.13;3.88;;;6.90;99.90;;;;;;5042748;28;20488;-27
2022/04/27 01:50:55;;;;;;;8.68;4.05;;;6.70;99.90;;;;;;5042374;28;20051;-26
2022/04/27 01:56:05;;;;;;;7.88;3.50;;;7.00;99.90;;;;;;5051120;28;20048;-27
2022/04/27 01:58:31;;;;;;;10.90;3.42;;;7.00;99.90;;;;;;5056518;28;20556;-26
2022/04/27 02:00:57;;;;;;;10.00;3.97;;;7.10;99.90;;;;;;5055438;28;20057;-26
2022/04/27 02:03:24;;;;;;;9.43;4.20;;;6.90;99.90;;;;;;5037525;28;20049;-27
2022/04/27 02:05:50;;;;;;;9.82;3.40;;;7.20;99.90;;;;;;5018775;28;20112;-26
2022/04/27 02:08:16;;;;;;;9.10;3.70;;;7.10;99.90;;;;;;5055348;28;20052;-26
2022/04/27 02:10:42;;;;;;;8.57;3.90;;;7.00;99.90;;;;;;5044987;28;20046;-26
2022/04/27 02:13:09;;;;;;;7.43;3.25;;;7.20;99.90;;;;;;5039211;28;20103;-26
2022/04/27 02:15:36;;;;;;;7.22;3.20;;;7.00;99.90;;;;;;5035100;28;20056;-27
2022/04/27 02:18:02;;;;;;;6.03;3.50;;;7.20;99.90;;;;;;5035917;28;20049;-26
2022/04/27 02:20:28;;;;;;;5.20;3.28;;;7.00;99.90;;;;;;5041909;28;20074;-26
2022/04/27 02:22:54;;;;;;;7.05;3.58;;;7.30;99.90;;;;;;5051043;28;20043;-26
2022/04/27 02:25:22;;;;;;;7.20;3.65;;;6.90;99.90;;;;;;5044788;28;20395;-26
2022/04/27 02:27:49;;;;;;;7.72;2.95;;;7.10;92.20;;;;;;5054042;28;20102;-26
2022/04/27 02:30:16;;;;;;;5.13;3.42;;;7.10;79.60;;;;;;5036175;28;20453;-27
2022/04/27 02:32:42;;;;;;;5.97;3.65;;;6.90;70.90;;;;;;5034903;28;20081;-26
2022/04/27 02:35:09;;;;;;;6.93;3.50;;;7.10;64.40;;;;;;5049823;28;20060;-26
2022/04/27 02:37:36;;;;;;;15.07;3.67;;;6.90;51.00;;;;;;5050079;28;20052;-26
2022/04/27 02:40:03;;;;;;;9.27;4.00;;;7.30;33.50;;;;;;5035821;28;20041;-26
2022/04/27 02:42:29;;;;;;;5.68;3.85;;;6.90;25.20;;;;;;5035929;28;20042;-26
2022/04/27 02:44:59;;;;;;;9.15;3.40;;;7.00;23.90;;;;;;5039031;28;20055;-27
2022/04/27 02:47:25;;;;;;;6.82;3.60;;;7.30;29.70;;;;;;5054649;28;20047;-26
2022/04/27 02:52:35;;;;;;;7.70;4.32;;;6.70;53.30;;;;;;5052078;28;20132;-26
2022/04/27 02:55:01;;;;;;;8.25;4.55;;;6.90;72.00;;;;;;5053527;28;20152;-27
2022/04/27 02:57:26;;;;;;;9.43;3.92;;;6.90;82.20;;;;;;5055437;28;20128;-27
2022/04/27 02:59:52;;;;;;;8.63;4.60;;;6.70;93.80;;;;;;5047048;28;20496;-26
2022/04/27 03:02:18;;;;;;;9.70;3.97;;;6.90;99.90;;;;;;5033898;28;20068;-27
2022/04/27 03:04:44;;;;;;;8.23;4.35;;;6.90;99.90;;;;;;5038968;28;20049;-26
2022/04/27 03:07:10;;;;;;;11.23;4.30;;;6.70;99.90;;;;;;5051809;28;20052;-26
2022/04/27 03:09:36;;;;;;;8.65;4.75;;;6.90;99.90;;;;;;5054108;28;20047;-26
2022/04/27 03:12:02;;;;;;;8.57;4.22;;;6.80;99.90;;;;;;5038525;28;20107;-28
2022/04/27 03:14:28;;;;;;;5.65;4.45;;;6.90;99.90;;;;;;5039113;28;20049;-26
2022/04/27 03:16:55;;;;;;;8.13;4.32;;;6.60;99.90;;;;;;5039479;28;20037;-26
2022/04/27 03:19:21;;;;;;;9.25;4.43;;;6.80;99.90;;;;;;5054966;28;20484;-26
2022/04/27 03:21:47;;;;;;;6.50;4.50;;;6.60;99.90;;;;;;5048150;28;20056;-26
2022/04/27 03:24:13;;;;;;;11.75;4.97;;;6.70;99.90;;;;;;5035228;28;20099;-26
2022/04/27 03:26:39;;;;;;;8.38;4.97;;;6.70;99.90;;;;;;5046284;28;20041;-26
2022/04/27 03:29:04;;;;;;;9.25;5.82;;;6.40;99.90;;;;;;5052792;28;20499;-27
2022/04/27 03:31:31;;;;;;;7.88;5.45;;;6.60;99.90;;;;;;5053563;28;20503;-26
2022/04/27 03:33:57;;;;;;;8.20;5.28;;;6.60;99.90;;;;;;5049484;28;20121;-26
2022/04/27 03:36:22;;;;;;;8.05;4.95;;;6.60;99.90;;;;;;5036436;28;20556;-26
2022/04/27 03:38:48;;;;;;;14.25;7.07;;;6.30;99.90;;;;;;5055169;28;20048;-26
2022/04/27 03:41:20;;;;;;;8.43;5.32;;;6.80;99.90;;;;;;5052365;28;20124;-26
2022/04/27 03:43:50;;;;;;;6.63;4.95;;;6.30;99.90;;;;;;5048813;28;20049;-26
2022/04/27 03:46:16;;;;;;;8.85;4.60;;;6.50;99.90;;;;;;5048714;28;20044;-26
2022/04/27 03:48:42;;;;;;;9.85;5.15;;;7.00;99.90;;;;;;5042896;28;20514;-26
2022/04/27 03:51:08;;;;;;;6.65;4.55;;;6.60;99.90;;;;;;5021159;28;20041;-26
2022/04/27 03:53:34;;;;;;;7.45;4.38;;;6.40;99.90;;;;;;5035042;28;20258;-26
2022/04/27 03:56:00;;;;;;;9.18;4.47;;;6.60;99.90;;;;;;5041862;28;20125;-27
2022/04/27 03:58:25;;;;;;;6.80;4.57;;;6.50;99.90;;;;;;5042821;28;20123;-26
2022/04/27 04:00:51;;;;;;;9.48;5.72;;;6.50;99.90;;;;;;5043979;28;20053;-26
2022/04/27 04:03:17;;;;;;;13.10;4.85;;;6.50;99.90;;;;;;5036367;28;20044;-26
2022/04/27 04:05:42;;;;;;;10.93;5.53;;;6.90;99.80;;;;;;5054121;28;20041;-26
2022/04/27 04:08:08;;;;;;;8.07;4.32;;;6.90;79.40;;;;;;5047687;28;20041;-28
2022/04/27 04:10:35;;;;;;;7.13;4.63;;;6.50;24.80;;;;;;5038850;28;20124;-26
2022/04/27 04:13:00;;;;;;;11.50;4.45;;;6.80;4.10;;;;;;5052036;28;20041;-26
2022/04/27 04:15:26;;;;;;;7.40;4.05;;;6.80;1.00;;;;;;5052959;28;20507;-26
2022/04/27 04:17:52;;;;;;;8.18;4.80;;;6.60;1.00;;;;;;5048516;28;20063;-26
2022/04/27 04:20:19;;;;;;;7.18;4.20;;;6.60;1.00;;;;;;5041107;28;20037;-26
2022/04/27 04:22:46;;;;;;;8.02;5.00;;;6.60;1.00;;;;;;5050814;28;20127;-26
2022/04/27 04:30:42;;;;;;;9.10;4.65;;;6.70;1.00;;;;;;5045007;28;20057;-26
2022/04/27 04:33:08;;;;;;;8.15;4.10;;;6.90;1.00;;;;;;5050891;28;20045;-27
2022/04/27 04:35:34;;;;;;;5.63;3.80;;;6.80;1.00;;;;;;5054282;28;20384;-26
2022/04/27 04:38:00;;;;;;;4.25;3.50;;;6.90;1.00;;;;;;5033511;28;21669;-27
2022/04/27 04:40:26;;;;;;;16.20;5.28;;;6.80;1.00;;;;;;5042725;28;20055;-26
2022/04/27 04:42:52;;;;;;;7.00;4.05;;;7.20;1.00;;;;;;5044998;28;20053;-26
2022/04/27 04:45:18;;;;;;;7.20;3.95;;;6.80;1.00;;;;;;5042620;28;20048;-26
2022/04/27 04:47:44;;;;;;;6.22;4.55;;;7.10;99.90;;;;;;5052506;28;20084;-26
2022/04/27 04:50:13;;;;;;;6.05;3.58;;;6.80;99.90;;;;;;5049657;28;20076;-26
2022/04/27 04:52:39;;;;;;;6.97;4.32;;;6.80;99.90;;;;;;5040208;28;20140;-26
2022/04/27 04:55:05;;;;;;;9.85;4.57;;;7.00;99.90;;;;;;5053745;28;20124;-27
2022/04/27 04:57:31;;;;;;;6.45;4.47;;;6.80;99.90;;;;;;5048128;28;20042;-26
2022/04/27 04:59:56;;;;;;;8.05;4.18;;;7.30;1.00;;;;;;5033106;28;20448;-27
2022/04/27 05:02:22;;;;;;;7.03;4.03;;;7.30;1.00;;;;;;5051210;28;20053;-26
2022/04/27 05:04:49;;;;;;;12.32;4.65;;;6.80;1.00;;;;;;5052771;28;20080;-26
2022/04/27 05:07:18;;;;;;;7.07;4.10;;;6.80;1.00;;;;;;5049599;28;20049;-27
2022/04/27 05:09:44;;;;;;;5.97;4.13;;;6.90;1.00;;;;;;5049431;28;20041;-26
2022/04/27 05:12:10;;;;;;;5.63;4.22;;;7.20;1.00;;;;;;5031597;28;20052;-26
2022/04/27 05:14:36;;;;;;;5.65;4.05;;;7.00;1.00;;;;;;5033169;28;20045;-26
2022/04/27 05:17:02;;;;;;;5.28;4.07;;;7.30;1.00;;;;;;5033198;28;20490;-28
2022/04/27 05:19:28;;;;;;;6.93;3.85;;;7.10;1.00;;;;;;5032942;28;20071;-27
2022/04/27 05:21:53;;;;;;;10.55;4.70;;;7.30;1.00;;;;;;5045064;28;20052;-27
2022/04/27 05:24:19;;;;;;;6.18;3.97;;;7.40;99.90;;;;;;5050986;28;20041;-26
2022/04/27 05:26:45;;;;;;;7.22;4.40;;;7.30;99.90;;;;;;5048441;28;20489;-27
2022/04/27 05:31:54;;;;;;;5.15;3.53;;;7.40;99.90;;;;;;5044109;28;20132;-26
2022/04/27 05:34:30;;;;;;;5.10;3.90;;;7.50;99.90;;;;;;5036270;28;20503;-27
2022/04/27 05:36:56;;;;;;;9.15;4.60;;;7.60;99.90;;;;;;5043020;28;20102;-27
2022/04/27 05:39:22;;;;;;;4.72;2.53;;;7.80;99.90;;;;;;5056902;28;20060;-26
2022/04/27 05:41:53;;;;;;;6.82;3.85;;;7.80;99.90;;;;;;5036994;28;20439;-26
2022/04/27 05:44:23;;;;;;;8.10;3.70;;;8.00;99.90;;;;;;5049399;28;20048;-26
2022/04/27 05:46:49;;;;;;;7.65;4.10;;;7.80;99.90;;;;;;5055615;28;20127;-26
2022/04/27 05:49:15;;;;;;;4.38;3.30;;;7.80;99.90;;;;;;5055549;28;20041;-26
2022/04/27 05:51:41;;;;;;;7.22;3.58;;;7.80;99.90;;;;;;5056900;28;20052;-27
2022/04/27 05:54:07;;;;;;;6.07;3.50;;;7.90;99.90;;;;;;5052086;28;20049;-27
2022/04/27 05:56:33;;;;;;;9.05;3.50;;;7.90;99.90;;;;;;5053517;28;20045;-26
2022/04/27 05:58:59;;;;;;;5.97;3.38;;;8.30;99.90;;;;;;5053946;28;20056;-27
2022/04/27 06:01:25;;;;;;;5.10;2.95;;;8.00;99.90;;;;;;5036329;28;20053;-27
2022/04/27 06:03:53;;;;;;;5.70;2.97;;;8.10;99.90;;;;;;5039150;28;20041;-26
2022/04/27 06:06:23;;;;;;;5.35;3.63;;;8.20;99.90;;;;;;5048106;28;20442;-27
2022/04/27 06:08:49;;;;;;;9.15;3.80;;;8.20;99.90;;;;;;5054347;28;20076;-26
2022/04/27 06:11:16;;;;;;;5.30;3.58;;;8.30;99.90;;;;;;5044810;28;20092;-26
2022/04/27 06:13:43;;;;;;;6.68;3.20;;;8.30;99.90;;;;;;5020050;28;20510;-26
2022/04/27 06:16:09;;;;;;;5.57;3.17;;;8.40;99.90;;;;;;5037653;28;20041;-27
2022/04/27 06:18:35;;;;;;;7.97;3.00;;;8.70;99.90;;;;;;5051332;28;20570;-27
2022/04/27 06:21:01;;;;;;;8.27;3.30;;;8.70;99.90;;;;;;5035282;28;20072;-27
2022/04/27 06:23:27;;;;;;;4.32;2.70;;;8.80;99.90;;;;;;5047632;28;20099;-27
2022/04/27 06:25:53;;;;;;;5.07;2.53;;;8.90;99.90;;;;;;5049329;28;20432;-27
2022/04/27 06:28:19;;;;;;;4.60;1.75;;;9.10;99.90;;;;;;5056012;28;20179;-27
2022/04/27 06:30:45;;;;;;;3.58;1.30;;;9.00;99.90;;;;;;5054399;28;20076;-26
2022/04/27 06:33:11;;;;;;;5.70;1.83;;;9.20;99.90;;;;;;5052206;28;20048;-27
2022/04/27 06:35:39;;;;;;;4.70;2.28;;;9.10;91.80;;;;;;5044967;28;20042;-27
2022/04/27 06:38:07;;;;;;;6.82;2.47;;;9.10;83.30;;;;;;5048895;28;20049;-26
2022/04/27 06:40:33;;;;;;;5.07;2.55;;;9.10;72.50;;;;;;5054431;28;20573;-27
2022/04/27 06:42:59;;;;;;;7.80;2.60;;;9.30;41.00;;;;;;5053097;28;20120;-26
2022/04/27 06:45:27;;;;;;;6.32;2.70;;;9.10;53.50;;;;;;5049211;28;20080;-26
2022/04/27 06:47:54;;;;;;;8.93;2.45;;;9.10;35.90;;;;;;5035212;28;20045;-28
2022/04/27 06:50:21;;;;;;;9.27;3.05;;;9.00;11.40;;;;;;5035510;28;20052;-27
2022/04/27 06:52:46;;;;;;;5.80;2.95;;;9.10;15.30;;;;;;5034076;28;20053;-27
2022/04/27 06:55:13;;;;;;;5.78;2.38;;;9.10;47.60;;;;;;5034988;28;20103;-27
2022/04/27 06:57:39;;;;;;;3.90;1.80;;;9.10;38.40;;;;;;5044867;28;20408;-27
2022/04/27 07:00:08;;;;;;;8.30;2.20;;;9.10;1.00;;;;;;5045725;28;20049;-26
2022/04/27 07:02:35;;;;;;;5.30;2.38;;;9.10;1.00;;;;;;5035518;28;20096;-27
2022/04/27 07:05:02;;;;;;;5.95;2.20;;;9.10;1.00;;;;;;5054097;28;20507;-26
2022/04/27 07:07:28;;;;;;;7.07;2.05;;;9.10;1.00;;;;;;5050840;28;20102;-26
2022/04/27 07:09:55;;;;;;;6.88;2.00;;;9.20;1.00;;;;;;5050146;28;20037;-27
2022/04/27 07:12:21;;;;;;;3.38;1.90;;;9.20;1.00;;;;;;5040623;28;20044;-27
2022/04/27 07:14:48;;;;;;;6.65;2.20;;;9.30;1.00;;;;;;5044574;28;20190;-26
2022/04/27 07:17:15;;;;;;;5.50;2.40;;;9.50;1.00;;;;;;5034642;28;20037;-27
2022/04/27 07:19:43;;;;;;;4.57;2.50;;;9.30;1.00;;;;;;5034762;28;20041;-27
2022/04/27 07:22:10;;;;;;;5.78;2.50;;;9.20;1.00;;;;;;5039417;28;20047;-26
2022/04/27 07:24:37;;;;;;;7.45;2.28;;;9.20;1.00;;;;;;5039710;28;20046;-27
2022/04/27 07:27:04;;;;;;;3.90;1.60;;;9.20;1.00;;;;;;5039198;28;20053;-27
2022/04/27 07:29:30;;;;;;;6.10;2.45;;;9.30;1.00;;;;;;5044573;28;20041;-27
2022/04/27 07:31:55;;;;;;;6.22;1.65;;;9.30;1.00;;;;;;5048731;28;20037;-27
2022/04/27 07:34:21;;;;;;;6.60;2.83;;;9.30;1.00;;;;;;5052630;28;20049;-27
2022/04/27 07:36:47;;;;;;;4.90;1.90;;;9.40;1.00;;;;;;5055237;28;20124;-28
2022/04/27 07:39:13;;;;;;;7.07;2.42;;;9.60;1.00;;;;;;5042764;28;20045;-28
2022/04/27 07:41:39;;;;;;;6.18;2.00;;;9.50;1.00;;;;;;5053684;28;20057;-27
2022/04/27 07:44:06;;;;;;;10.07;2.05;;;9.60;1.00;;;;;;5053598;28;20048;-27
2022/04/27 07:46:33;;;;;;;6.00;2.00;;;9.70;1.00;;;;;;5054349;28;20053;-27
2022/04/27 07:48:58;;;;;;;5.78;2.20;;;9.80;1.00;;;;;;5036225;28;20053;-27
2022/04/27 07:51:24;;;;;;;4.85;2.20;;;9.90;1.00;;;;;;5033488;28;20041;-27
2022/04/27 07:53:50;;;;;;;8.95;3.22;;;9.90;1.00;;;;;;5033352;28;20128;-27
2022/04/27 07:56:16;;;;;;;6.50;1.50;;;9.80;1.00;;;;;;5034628;28;20045;-27
2022/04/27 07:58:42;;;;;;;8.15;2.50;;;10.00;1.00;;;;;;5033091;28;20110;-27
2022/04/27 08:01:08;;;;;;;8.40;2.33;;;9.70;1.00;;;;;;5034371;28;20049;-27
2022/04/27 08:03:33;;;;;;;12.65;2.13;;;9.90;1.00;;;;;;5035112;28;20377;-27
2022/04/27 08:06:02;;;;;;;8.25;1.95;;;9.70;1.00;;;;;;5034200;28;20046;-27
2022/04/27 08:08:29;;;;;;;7.97;1.90;;;9.70;1.00;;;;;;5042565;28;20049;-27
2022/04/27 08:10:55;;;;;;;6.18;1.90;;;9.90;1.00;;;;;;5051652;28;20048;-27
2022/04/27 08:13:21;;;;;;;7.90;1.85;;;9.70;1.00;;;;;;5041094;28;20488;-27
2022/04/27 08:15:47;;;;;;;10.30;2.55;;;9.70;1.00;;;;;;5046088;28;20060;-27
2022/04/27 08:18:13;;;;;;;5.63;1.60;;;9.70;1.00;;;;;;5052850;28;20408;-27
2022/04/27 08:23:29;;;;;;;9.60;1.75;;;9.80;1.00;;;;;;5052415;28;20563;-27
2022/04/27 08:26:00;;;;;;;13.68;2.60;;;9.70;1.00;;;;;;5035915;28;20437;-26
2022/04/27 08:28:27;;;;;;;9.98;2.40;;;9.70;1.00;;;;;;5043904;28;20052;-27
2022/04/27 08:30:53;;;;;;;7.97;2.40;;;9.70;1.00;;;;;;5048522;28;20045;-26
2022/04/27 08:33:20;;;;;;;9.25;2.45;;;9.50;1.00;;;;;;5040525;28;20045;-26
2022/04/27 08:35:47;;;;;;;12.07;2.40;;;9.50;1.00;;;;;;5039782;28;20049;-27
2022/04/27 08:38:13;;;;;;;12.10;3.03;;;9.50;1.00;;;;;;5042380;28;20044;-27
2022/04/27 08:40:46;;;;;;;9.57;2.42;;;9.50;2.20;;;;;;5047002;28;20096;-27
2022/04/27 08:43:13;;;;;;;10.48;2.50;;;9.40;1.00;;;;;;5044998;28;20041;-27
2022/04/27 08:45:43;;;;;;;10.95;2.58;;;9.30;1.00;;;;;;5053527;28;20123;-26
2022/04/27 08:48:11;;;;;;;12.00;2.70;;;9.30;12.10;;;;;;5041432;28;20045;-28
2022/04/27 08:50:37;;;;;;;11.77;2.65;;;9.50;13.90;;;;;;5041856;28;20396;-27
2022/04/27 08:53:03;;;;;;;11.65;2.83;;;9.40;23.50;;;;;;5035699;28;20120;-26
2022/04/27 08:55:29;;;;;;;12.43;2.83;;;9.40;30.50;;;;;;5034089;28;20049;-26
2022/04/27 08:58:12;;;;;;;11.60;2.72;;;9.40;45.40;;;;;;5036326;28;20046;-26
2022/04/27 09:00:39;;;;;;;8.82;2.08;;;9.30;1.00;;;;;;5042744;28;20106;-27
2022/04/27 09:03:30;;;;;;;12.55;2.13;;;9.20;1.00;;;;;;5038913;28;20155;-27
2022/04/27 09:06:00;;;;;;;17.15;2.78;;;9.20;1.00;;;;;;5054997;28;20484;-27
2022/04/27 09:08:40;;;;;;;15.23;2.28;;;9.10;1.00;;;;;;5025563;28;20558;-27
2022/04/27 09:11:28;;;;;;;12.48;1.92;;;9.10;1.00;;;;;;5036492;28;20088;-27
2022/04/27 09:14:00;;;;;;;11.75;2.67;;;9.10;1.00;;;;;;5052937;28;20119;-26
2022/04/27 09:20:46;;;;;;;14.70;2.30;;;9.20;1.00;;;;;;5057335;28;20048;-27
2022/04/27 09:22:04;;;;;;;13.65;2.97;;;9.30;1.00;;;;;;5037794;28;20053;-27
2022/04/27 09:24:50;;;;;;;14.63;2.72;;;9.40;1.00;;;;;;5036834;28;20133;-27
2022/04/27 09:27:18;;;;;;;15.13;2.33;;;9.40;1.00;;;;;;5047272;28;20126;-26
2022/04/27 09:29:58;;;;;;;11.05;2.60;;;9.50;1.00;;;;;;5056218;28;20090;-27
2022/04/27 09:32:24;;;;;;;13.57;3.10;;;9.50;1.00;;;;;;5057019;28;20586;-27
2022/04/27 09:34:50;;;;;;;14.10;2.60;;;9.60;1.00;;;;;;5038506;28;20134;-26
2022/04/27 09:37:17;;;;;;;12.75;2.53;;;9.70;1.00;;;;;;5044213;28;20071;-27
2022/04/27 09:39:45;;;;;;;10.38;2.58;;;9.80;1.00;;;;;;5036946;28;20119;-26
2022/04/27 09:42:10;;;;;;;17.13;2.67;;;9.90;1.00;;;;;;5036177;28;20085;-27
2022/04/27 09:44:38;;;;;;;14.90;2.13;;;10.00;1.00;;;;;;5056509;28;20165;-26
2022/04/27 09:47:06;;;;;;;14.18;2.53;;;10.20;1.00;;;;;;5056780;28;20053;-27
2022/04/27 09:49:36;;;;;;;9.85;2.03;;;10.00;1.00;;;;;;5057003;28;20041;-27
2022/04/27 09:52:05;;;;;;;15.75;2.60;;;10.00;1.00;;;;;;5050292;28;20124;-28
2022/04/27 09:54:40;;;;;;;9.85;1.80;;;10.00;1.00;;;;;;5040926;28;20050;-27
2022/04/27 09:57:10;;;;;;;10.57;2.40;;;10.10;1.00;;;;;;5039143;28;20124;-28
2022/04/27 09:59:36;;;;;;;10.98;2.03;;;10.30;1.00;;;;;;5051126;28;20052;-27
2022/04/27 10:02:11;;;;;;;13.25;2.03;;;10.30;1.00;;;;;;5035557;28;20378;-28
2022/04/27 10:04:38;;;;;;;9.57;2.15;;;10.30;1.00;;;;;;5039412;28;20156;-27
2022/04/27 10:07:07;;;;;;;12.80;2.20;;;10.30;1.00;;;;;;5048281;28;20060;-27
2022/04/27 10:09:33;;;;;;;8.15;2.00;;;10.40;1.00;;;;;;5052594;28;20040;-28
2022/04/27 10:12:03;;;;;;;9.65;2.05;;;10.40;1.00;;;;;;5046711;28;20116;-27
2022/04/27 10:14:29;;;;;;;12.23;2.90;;;10.40;1.00;;;;;;5072211;28;20112;-27
2022/04/27 10:16:56;;;;;;;9.00;1.80;;;10.40;1.00;;;;;;5069832;28;20488;-27
2022/04/27 10:19:23;;;;;;;13.27;2.15;;;10.50;1.00;;;;;;5041255;28;20507;-27
2022/04/27 10:21:57;;;;;;;12.85;2.72;;;10.60;1.00;;;;;;5043080;28;20045;-28
2022/04/27 10:24:35;;;;;;;12.05;2.17;;;10.70;1.00;;;;;;5040977;28;20045;-27
2022/04/27 10:27:14;;;;;;;10.85;2.58;;;10.70;99.90;;;;;;5053362;28;20083;-27
2022/04/27 10:29:40;;;;;;;14.73;2.17;;;10.80;1.00;;;;;;5033781;28;20388;-27
2022/04/27 10:32:06;;;;;;;12.02;2.22;;;10.90;1.00;;;;;;5037404;28;20523;-27
2022/04/27 10:34:33;;;;;;;10.73;1.80;;;10.80;99.90;;;;;;5037266;28;20048;-27
2022/04/27 10:37:00;;;;;;;11.02;2.63;;;10.90;99.90;;;;;;5038926;28;20497;-27
2022/04/27 10:39:33;;;;;;;11.13;1.98;;;10.90;99.90;;;;;;5041914;28;20057;-26
2022/04/27 10:42:05;;;;;;;9.38;2.00;;;11.10;99.90;;;;;;5045826;28;20700;-26
2022/04/27 10:44:53;;;;;;;8.15;1.67;;;11.00;99.90;;;;;;5037834;28;20095;-26
2022/04/27 10:47:20;;;;;;;11.73;2.10;;;11.10;99.90;;;;;;5049913;28;20089;-27
2022/04/27 10:49:48;;;;;;;13.18;2.00;;;11.10;99.90;;;;;;5041686;28;20049;-27
2022/04/27 10:52:14;;;;;;;8.13;1.83;;;11.30;99.90;;;;;;5048541;28;20060;-26
2022/04/27 10:54:41;;;;;;;13.30;3.30;;;11.40;99.90;;;;;;5045623;28;20443;-26
2022/04/27 10:57:19;;;;;;;10.48;2.47;;;11.50;99.90;;;;;;5034242;28;20051;-27
2022/04/27 10:59:59;;;;;;;13.18;2.47;;;11.80;99.90;;;;;;5040569;28;20389;-26
2022/04/27 11:02:34;;;;;;;12.80;1.85;;;12.00;99.90;;;;;;5035204;28;20132;-26
2022/04/27 11:05:19;;;;;;;9.57;2.47;;;12.10;99.90;;;;;;5035352;28;20125;-27
2022/04/27 11:08:09;;;;;;;7.60;2.00;;;12.40;99.90;;;;;;5039359;28;20045;-27
2022/04/27 11:10:39;;;;;;;11.20;2.42;;;12.70;99.90;;;;;;5036975;28;20128;-26
2022/04/27 11:13:08;;;;;;;15.00;2.05;;;13.00;99.90;;;;;;5045718;28;20041;-27
2022/04/27 11:15:34;;;;;;;12.43;1.90;;;13.40;99.90;;;;;;5044859;28;20053;-28
2022/04/27 11:18:04;;;;;;;11.00;1.98;;;13.40;99.90;;;;;;5050176;28;20577;-27
2022/04/27 11:20:35;;;;;;;11.30;2.15;;;13.70;99.90;;;;;;5036288;28;20129;-27
2022/04/27 11:23:19;;;;;;;8.65;1.80;;;13.90;99.90;;;;;;5034436;28;20413;-27
2022/04/27 11:25:48;;;;;;;;;;;14.30;99.90;;;;;;5043946;28;20447;-27
2022/04/27 11:28:15;;;;;;;8.52;1.75;;;14.00;37.90;;;;;;5044012;28;19943;-27
2022/04/27 11:30:41;;;;;;;9.75;2.38;;;14.10;99.90;;;;;;5052899;28;20041;-27
2022/04/27 11:33:08;;;;;;;6.43;2.03;;;14.10;71.80;;;;;;5053340;28;20106;-27
2022/04/27 11:35:45;;;;;;;6.38;1.70;;;13.80;67.60;;;;;;5054680;28;20044;-27
2022/04/27 11:38:19;;;;;;;6.93;1.83;;;13.80;35.80;;;;;;5052581;28;20389;-28
2022/04/27 11:40:48;;;;;;;10.60;1.75;;;13.40;38.10;;;;;;5054100;28;20439;-27
2022/04/27 11:43:27;;;;;;;10.15;2.35;;;13.00;91.40;;;;;;5029170;28;20047;-27
2022/04/27 11:45:53;;;;;;;7.65;1.50;;;13.00;99.90;;;;;;5054576;28;20071;-27
2022/04/27 11:48:22;;;;;;;9.05;1.75;;;13.00;99.90;;;;;;5053929;28;20092;-27
2022/04/27 11:50:48;;;;;;;10.07;1.88;;;13.00;99.90;;;;;;5048844;28;20037;-27
2022/04/27 11:53:15;;;;;;;9.60;1.85;;;12.70;96.00;;;;;;5049958;28;20049;-27
2022/04/27 11:55:44;;;;;;;6.60;1.75;;;12.80;62.30;;;;;;5034701;28;20128;-27
2022/04/27 11:58:24;;;;;;;8.80;2.85;;;13.00;91.30;;;;;;5034321;28;20049;-26
2022/04/27 12:00:54;;;;;;;12.05;1.90;;;13.00;15.40;;;;;;5035607;28;20053;-26
2022/04/27 12:03:20;;;;;;;11.73;3.22;;;12.90;84.70;;;;;;5044189;28;20407;-27
2022/04/27 12:05:50;;;;;;;7.47;1.92;;;12.90;99.90;;;;;;5054144;28;20045;-27
2022/04/27 12:08:21;;;;;;;12.32;2.17;;;12.90;99.90;;;;;;5050995;28;20539;-27
2022/04/27 12:10:49;;;;;;;10.60;2.63;;;12.90;99.90;;;;;;5053910;28;20404;-26
2022/04/27 12:13:16;;;;;;;9.75;1.98;;;12.80;99.90;;;;;;5042164;28;20052;-26
2022/04/27 12:15:44;;;;;;;7.40;1.98;;;12.70;99.90;;;;;;5034400;28;20477;-26
2022/04/27 12:18:17;;;;;;;9.13;2.17;;;12.70;99.90;;;;;;5026779;28;20052;-27
2022/04/27 12:20:44;;;;;;;8.93;1.77;;;12.80;66.60;;;;;;5043988;28;20122;-27
2022/04/27 12:23:14;;;;;;;12.10;2.67;;;12.80;85.10;;;;;;5016787;28;20072;-26
2022/04/27 12:25:53;;;;;;;10.73;2.00;;;12.90;75.50;;;;;;5032845;28;20057;-27
2022/04/27 12:28:24;;;;;;;8.95;1.52;;;12.80;65.10;;;;;;5034721;28;20053;-27
2022/04/27 12:31:20;;;;;;;9.65;2.30;;;13.00;57.80;;;;;;5034027;28;20469;-27
2022/04/27 12:33:50;;;;;;;11.05;2.55;;;13.00;93.90;;;;;;5046653;28;20427;-27
2022/04/27 12:39:21;;;;;;;;;;;12.70;99.90;;;;;;5045621;28;20052;-27
2022/04/27 12:41:49;;;;;;;9.85;2.05;;;12.20;99.90;;;;;;5032293;28;19921;-26
2022/04/27 12:44:21;;;;;;;6.20;1.73;;;11.90;99.90;;;;;;5038946;28;20057;-26
2022/04/27 12:47:12;;;;;;;10.05;2.63;;;11.70;99.90;;;;;;5052179;28;20048;-26
2022/04/27 12:49:42;;;;;;;9.77;2.30;;;11.40;99.90;;;;;;5036641;28;20404;-26
2022/04/27 12:52:21;;;;;;;11.48;2.83;;;11.20;99.90;;;;;;5038981;28;20052;-26
2022/04/27 12:54:50;;;;;;;12.05;2.55;;;11.10;99.90;;;;;;5034746;28;20397;-26
2022/04/27 12:57:17;;;;;;;11.52;2.22;;;11.10;99.90;;;;;;5039887;28;20044;-26
2022/04/27 13:00:00;;;;;;;11.32;2.45;;;11.10;99.90;;;;;;5041288;28;20143;-26
2022/04/27 13:02:27;;;;;;;15.18;2.45;;;11.10;99.90;;;;;;5024256;28;20050;-26
2022/04/27 13:04:54;;;;;;;8.25;2.33;;;11.10;99.90;;;;;;5008688;28;20064;-27
2022/04/27 13:07:20;;;;;;;9.85;1.92;;;11.20;99.90;;;;;;5015982;28;20100;-28
2022/04/27 13:12:38;;;;;;;9.55;1.95;;;11.30;99.90;;;;;;5016651;28;20184;-26
2022/04/27 13:15:05;;;;;;;10.35;2.40;;;11.30;99.90;;;;;;5026767;28;20050;-26
2022/04/27 13:17:31;;;;;;;10.40;2.10;;;11.40;99.90;;;;;;5029859;28;20050;-28
2022/04/27 13:19:58;;;;;;;9.40;2.33;;;11.50;99.90;;;;;;5026429;28;20052;-26
2022/04/27 13:22:24;;;;;;;7.07;2.15;;;11.60;99.90;;;;;;5029058;28;20081;-26
2022/04/27 13:24:50;;;;;;;11.02;2.42;;;11.60;99.90;;;;;;5028214;28;20348;-26